createdAt,value
2022-11-10T00:02:10.025Z,50.63
2022-11-10T00:04:37.996Z,50.80
2022-11-10T00:07:05.906Z,49.90
2022-11-10T00:09:35.212Z,50.93
2022-11-10T00:12:03.213Z,51.83
2022-11-10T00:14:48.517Z,50.50
2022-11-10T00:17:16.363Z,50.77
2022-11-10T00:19:44.209Z,50.17
2022-11-10T00:22:12.034Z,50.93
2022-11-10T00:24:41.300Z,48.57
2022-11-10T00:27:09.118Z,48.27
2022-11-10T00:29:37.000Z,50.63
2022-11-10T00:32:05.079Z,49.03
2022-11-10T00:34:32.933Z,50.40
2022-11-10T00:37:00.755Z,49.73
2022-11-10T00:39:28.636Z,53.57
2022-11-10T00:41:58.105Z,51.00
2022-11-10T00:44:26.287Z,48.83
2022-11-10T00:46:54.136Z,49.73
2022-11-10T00:49:22.141Z,52.53
2022-11-10T00:51:50.050Z,49.80
2022-11-10T00:54:17.903Z,48.90
2022-11-10T00:56:45.831Z,49.23
2022-11-10T00:59:15.025Z,48.43
2022-11-10T01:01:42.885Z,48.97
2022-11-10T01:04:10.748Z,49.03
2022-11-10T01:06:38.611Z,47.67
2022-11-10T01:09:06.459Z,49.20
2022-11-10T01:11:34.330Z,48.13
2022-11-10T01:14:02.210Z,47.93
2022-11-10T01:16:33.099Z,49.50
2022-11-10T01:19:03.522Z,47.90
2022-11-10T01:21:31.838Z,48.50
2022-11-10T01:23:59.808Z,49.37
2022-11-10T01:26:27.704Z,50.07
2022-11-10T01:28:55.536Z,47.83
2022-11-10T01:31:23.869Z,47.07
2022-11-10T01:33:53.121Z,50.00
2022-11-10T01:36:20.973Z,49.63
2022-11-10T01:38:48.845Z,48.43
2022-11-10T01:41:16.736Z,50.20
2022-11-10T01:43:44.570Z,48.43
2022-11-10T01:46:13.373Z,50.13
2022-11-10T01:48:46.787Z,49.37
2022-11-10T01:51:20.796Z,49.53
2022-11-10T01:53:52.148Z,48.20
2022-11-10T01:56:20.988Z,48.17
2022-11-10T01:58:55.129Z,49.43
2022-11-10T02:01:24.306Z,48.37
2022-11-10T02:03:54.551Z,48.87
2022-11-10T02:06:27.829Z,48.30
2022-11-10T02:08:56.952Z,47.87
2022-11-10T02:11:24.877Z,46.43
2022-11-10T02:13:53.822Z,47.57
2022-11-10T02:16:23.180Z,49.57
2022-11-10T02:18:51.383Z,49.50
2022-11-10T02:21:21.927Z,48.03
2022-11-10T02:23:51.663Z,47.53
2022-11-10T02:26:23.512Z,48.43
2022-11-10T02:28:51.564Z,48.97
2022-11-10T02:31:19.431Z,45.93
2022-11-10T02:33:47.375Z,46.47
2022-11-10T02:36:15.231Z,46.67
2022-11-10T02:38:44.453Z,47.20
2022-11-10T02:41:12.288Z,46.57
2022-11-10T02:43:40.608Z,46.47
2022-11-10T02:46:08.486Z,46.10
2022-11-10T02:48:36.355Z,45.53
2022-11-10T02:51:04.350Z,47.87
2022-11-10T02:53:32.288Z,45.50
2022-11-10T02:56:01.501Z,45.67
2022-11-10T02:58:29.326Z,47.33
2022-11-10T03:00:57.195Z,45.57
2022-11-10T03:03:25.274Z,45.23
2022-11-10T03:05:53.271Z,44.50
2022-11-10T03:08:21.157Z,46.00
2022-11-10T03:10:48.975Z,46.87
2022-11-10T03:13:18.178Z,45.87
2022-11-10T03:15:48.378Z,45.33
2022-11-10T03:18:16.362Z,47.17
2022-11-10T03:20:44.196Z,45.50
2022-11-10T03:23:12.047Z,48.27
2022-11-10T03:25:39.903Z,47.93
2022-11-10T03:28:07.835Z,45.63
2022-11-10T03:30:37.128Z,46.50
2022-11-10T03:33:05.152Z,43.87
2022-11-10T03:35:34.014Z,44.60
2022-11-10T03:38:01.873Z,44.33
2022-11-10T03:40:29.777Z,42.30
2022-11-10T03:42:57.668Z,42.97
2022-11-10T03:45:26.117Z,42.43
2022-11-10T03:47:55.419Z,43.83
2022-11-10T03:50:23.299Z,43.47
2022-11-10T03:52:51.185Z,42.20
2022-11-10T03:55:20.906Z,44.10
2022-11-10T03:57:48.773Z,46.30
2022-11-10T04:00:17.211Z,46.33
2022-11-10T04:02:45.104Z,49.20
2022-11-10T04:05:31.436Z,47.20
2022-11-10T04:08:18.559Z,46.50
2022-11-10T04:10:46.873Z,49.27
2022-11-10T04:13:32.210Z,47.50
2022-11-10T04:16:00.119Z,52.10
2022-11-10T04:18:29.633Z,52.00
2022-11-10T04:21:00.971Z,49.60
2022-11-10T04:23:34.813Z,50.90
2022-11-10T04:26:23.302Z,49.93
2022-11-10T04:28:53.110Z,52.77
2022-11-10T04:31:23.467Z,53.77
2022-11-10T04:33:52.008Z,54.63
2022-11-10T04:36:23.880Z,53.30
2022-11-10T04:38:51.902Z,51.17
2022-11-10T04:41:19.991Z,50.87
2022-11-10T04:43:47.909Z,53.53
2022-11-10T04:46:23.833Z,51.53
2022-11-10T04:48:52.369Z,50.80
2022-11-10T04:51:23.299Z,48.87
2022-11-10T04:53:51.212Z,50.53
2022-11-10T04:56:20.767Z,55.43
2022-11-10T04:58:48.932Z,58.40
2022-11-10T05:01:19.619Z,57.30
2022-11-10T05:03:48.827Z,60.30
2022-11-10T05:06:17.210Z,63.77
2022-11-10T05:08:47.472Z,58.53
2022-11-10T05:11:15.576Z,60.60
2022-11-10T05:13:44.217Z,62.00
2022-11-10T05:16:12.720Z,58.67
2022-11-10T05:18:41.161Z,58.60
2022-11-10T05:21:09.051Z,56.23
2022-11-10T05:23:39.791Z,62.40
2022-11-10T05:26:11.213Z,54.80
2022-11-10T05:28:39.703Z,57.10
2022-11-10T05:31:09.025Z,60.10
2022-11-10T05:33:38.887Z,53.87
2022-11-10T05:36:07.865Z,54.10
2022-11-10T05:38:40.511Z,55.57
2022-11-10T05:41:11.418Z,53.63
2022-11-10T05:43:39.255Z,52.90
2022-11-10T05:46:07.376Z,55.27
2022-11-10T05:48:35.239Z,54.03
2022-11-10T05:51:03.079Z,56.73
2022-11-10T05:53:30.935Z,61.77
2022-11-10T05:55:58.799Z,65.53
2022-11-10T05:58:27.996Z,72.13
2022-11-10T06:00:55.822Z,82.33
2022-11-10T06:03:24.160Z,72.50
2022-11-10T06:05:53.349Z,66.43
2022-11-10T06:08:21.274Z,65.67
2022-11-10T06:10:49.093Z,64.33
2022-11-10T06:13:16.936Z,59.20
2022-11-10T06:15:50.202Z,55.73
2022-11-10T06:18:18.608Z,53.80
2022-11-10T06:20:47.274Z,52.70
2022-11-10T06:23:15.507Z,52.87
2022-11-10T06:25:44.689Z,50.67
2022-11-10T06:28:12.594Z,53.17
2022-11-10T06:30:40.447Z,51.67
2022-11-10T06:33:10.064Z,47.57
2022-11-10T06:35:38.116Z,48.67
2022-11-10T06:38:07.701Z,46.10
2022-11-10T06:40:35.693Z,46.27
2022-11-10T06:43:04.524Z,46.00
2022-11-10T06:45:32.469Z,46.83
2022-11-10T06:48:01.260Z,46.83
2022-11-10T06:50:31.039Z,43.20
2022-11-10T06:52:59.952Z,41.90
2022-11-10T06:55:28.778Z,43.37
2022-11-10T06:57:56.687Z,41.87
2022-11-10T07:00:25.241Z,40.83
2022-11-10T07:03:00.654Z,40.13
2022-11-10T07:05:29.972Z,43.73
2022-11-10T07:08:02.382Z,45.00
2022-11-10T07:10:30.205Z,47.13
2022-11-10T07:12:58.700Z,48.30
2022-11-10T07:15:27.073Z,49.50
2022-11-10T07:17:54.987Z,46.27
2022-11-10T07:20:22.903Z,46.57
2022-11-10T07:22:58.604Z,48.43
2022-11-10T07:25:26.760Z,43.57
2022-11-10T07:27:55.363Z,43.03
2022-11-10T07:30:23.322Z,44.40
2022-11-10T07:32:59.302Z,45.10
2022-11-10T07:35:28.556Z,44.37
2022-11-10T07:37:58.342Z,45.97
2022-11-10T07:40:26.167Z,44.43
2022-11-10T07:42:54.076Z,48.07
2022-11-10T07:45:21.919Z,48.07
2022-11-10T07:47:50.310Z,43.33
2022-11-10T07:50:18.398Z,42.13
2022-11-10T07:52:46.269Z,45.07
2022-11-10T07:55:15.519Z,44.10
2022-11-10T07:57:43.384Z,46.73
2022-11-10T08:00:13.578Z,46.13
2022-11-10T08:02:41.493Z,48.87
2022-11-10T08:05:10.207Z,46.73
2022-11-10T08:07:38.249Z,47.80
2022-11-10T08:10:06.998Z,51.47
2022-11-10T08:12:36.293Z,58.47
2022-11-10T08:15:04.672Z,58.93
2022-11-10T08:17:32.528Z,58.00
2022-11-10T08:20:00.596Z,58.17
2022-11-10T08:22:28.421Z,59.07
2022-11-10T08:24:56.263Z,58.20
2022-11-10T08:27:24.133Z,54.30
2022-11-10T08:29:53.327Z,52.80
2022-11-10T08:32:21.244Z,54.67
2022-11-10T08:34:49.252Z,57.57
2022-11-10T08:37:17.142Z,57.10
2022-11-10T08:39:45.054Z,54.83
2022-11-10T08:42:12.910Z,52.80
2022-11-10T08:44:40.758Z,50.85
2022-11-10T08:47:10.216Z,48.88
2022-11-10T08:49:38.044Z,48.10
2022-11-10T08:52:05.955Z,46.28
2022-11-10T08:54:33.864Z,46.28
2022-11-10T08:57:01.696Z,45.97
2022-11-10T08:59:29.719Z,44.35
2022-11-10T09:01:58.742Z,43.72
2022-11-10T09:04:28.008Z,43.75
2022-11-10T09:06:57.811Z,44.03
2022-11-10T09:09:26.799Z,42.78
2022-11-10T09:11:54.653Z,44.30
2022-11-10T09:14:22.804Z,44.35
2022-11-10T09:16:50.644Z,43.03
2022-11-10T09:19:19.977Z,42.92
2022-11-10T09:21:49.527Z,40.47
2022-11-10T09:24:17.528Z,41.55
2022-11-10T09:26:47.643Z,42.03
2022-11-10T09:29:15.766Z,39.38
2022-11-10T09:31:45.210Z,39.42
2022-11-10T09:34:13.102Z,39.90
2022-11-10T09:36:41.338Z,40.17
2022-11-10T09:39:10.668Z,40.58
2022-11-10T09:41:41.968Z,41.90
2022-11-10T09:44:15.899Z,39.78
2022-11-10T09:46:47.572Z,40.38
2022-11-10T09:49:26.587Z,41.85
2022-11-10T09:51:55.640Z,45.13
2022-11-10T09:54:34.234Z,46.10
2022-11-10T09:57:05.970Z,42.97
2022-11-10T09:59:35.712Z,42.40
2022-11-10T10:02:05.999Z,42.55
2022-11-10T10:04:51.889Z,45.53
2022-11-10T10:07:26.882Z,41.72
2022-11-10T10:10:03.621Z,41.67
2022-11-10T10:12:56.926Z,40.63
2022-11-10T10:15:31.850Z,39.97
2022-11-10T10:18:22.388Z,38.15
2022-11-10T10:21:07.167Z,38.33
2022-11-10T10:26:30.157Z,40.05
2022-11-10T10:29:02.322Z,40.72
2022-11-10T10:31:35.762Z,39.70
2022-11-10T10:34:05.178Z,39.03
2022-11-10T10:36:33.294Z,41.33
2022-11-10T10:39:04.646Z,40.10
2022-11-10T10:41:34.989Z,39.15
2022-11-10T10:44:10.976Z,39.50
2022-11-10T10:46:45.931Z,39.00
2022-11-10T10:49:28.485Z,38.42
2022-11-10T10:52:06.451Z,37.83
2022-11-10T10:54:36.072Z,40.72
2022-11-10T10:57:19.435Z,38.40
2022-11-10T10:59:47.947Z,39.15
2022-11-10T11:02:27.642Z,39.90
2022-11-10T11:05:12.757Z,37.78
2022-11-10T11:07:40.819Z,36.80
2022-11-10T11:10:19.935Z,36.30
2022-11-10T11:12:49.271Z,36.50
2022-11-10T11:15:25.780Z,36.55
2022-11-10T11:17:59.061Z,36.05
2022-11-10T11:20:35.807Z,35.15
2022-11-10T11:23:17.732Z,37.80
2022-11-10T11:25:48.568Z,35.08
2022-11-10T11:28:23.996Z,35.72
2022-11-10T11:31:04.485Z,34.58
2022-11-10T11:33:39.257Z,34.15
2022-11-10T11:36:18.633Z,35.58
2022-11-10T11:38:55.417Z,33.38
2022-11-10T11:41:35.333Z,35.55
2022-11-10T11:44:32.633Z,32.50
2022-11-10T11:47:19.476Z,33.28
2022-11-10T11:49:59.815Z,30.88
2022-11-10T11:52:36.141Z,32.83
2022-11-10T11:55:19.541Z,32.85
2022-11-10T11:58:05.844Z,31.05
2022-11-10T12:00:46.426Z,33.08
2022-11-10T12:03:44.037Z,32.00
2022-11-10T12:06:25.702Z,33.00
2022-11-10T12:09:02.523Z,32.03
2022-11-10T12:11:47.659Z,31.30
2022-11-10T12:14:26.620Z,33.97
2022-11-10T12:17:07.353Z,32.25
2022-11-10T12:19:41.978Z,31.10
2022-11-10T12:22:17.122Z,32.60
2022-11-10T12:24:57.230Z,32.38
2022-11-10T12:27:28.716Z,32.92
2022-11-10T12:29:59.283Z,33.47
2022-11-10T12:32:33.141Z,33.30
2022-11-10T12:35:08.317Z,33.83
2022-11-10T12:37:44.120Z,33.88
2022-11-10T12:40:16.600Z,33.40
2022-11-10T12:42:48.260Z,32.97
2022-11-10T12:45:22.995Z,31.98
2022-11-10T12:47:54.165Z,31.38
2022-11-10T12:50:33.473Z,31.23
2022-11-10T12:53:06.771Z,30.35
2022-11-10T12:55:39.015Z,30.42
2022-11-10T12:58:08.040Z,31.58
2022-11-10T13:00:42.850Z,32.17
2022-11-10T13:03:25.489Z,31.13
2022-11-10T13:05:57.112Z,30.42
2022-11-10T13:08:28.851Z,31.48
2022-11-10T13:11:01.531Z,30.65
2022-11-10T13:13:29.656Z,29.83
2022-11-10T13:15:59.161Z,31.25
2022-11-10T13:19:01.863Z,31.85
2022-11-10T13:22:11.169Z,31.20
2022-11-10T13:24:40.983Z,31.17
2022-11-10T13:27:13.209Z,29.77
2022-11-10T13:29:57.675Z,31.75
2022-11-10T13:32:30.806Z,32.08
2022-11-10T13:35:31.215Z,31.35
2022-11-10T13:38:00.799Z,30.85
2022-11-10T13:40:32.461Z,30.40
2022-11-10T13:43:23.350Z,33.28
2022-11-10T13:46:02.056Z,34.20
2022-11-10T13:48:58.614Z,31.73
2022-11-10T13:51:37.263Z,33.03
2022-11-10T13:54:37.608Z,29.07
2022-11-10T13:57:17.692Z,27.87
2022-11-10T13:59:52.694Z,28.47
2022-11-10T14:03:01.317Z,29.40
2022-11-10T14:06:11.855Z,29.70
2022-11-10T14:08:44.072Z,30.73
2022-11-10T14:11:23.869Z,29.10
2022-11-10T14:13:57.409Z,29.20
2022-11-10T14:16:27.325Z,28.60
2022-11-10T14:19:02.978Z,29.03
2022-11-10T14:21:41.644Z,28.33
2022-11-10T14:24:17.738Z,29.33
2022-11-10T14:26:51.926Z,29.03
2022-11-10T14:29:29.037Z,29.27
2022-11-10T14:31:58.633Z,29.03
2022-11-10T14:34:26.644Z,30.03
2022-11-10T14:36:58.166Z,34.27
2022-11-10T14:39:30.580Z,28.80
2022-11-10T14:42:02.757Z,28.07
2022-11-10T14:44:31.921Z,26.90
2022-11-10T14:47:14.862Z,30.70
2022-11-10T14:49:43.885Z,29.90
2022-11-10T14:52:14.911Z,28.93
2022-11-10T14:54:47.018Z,28.03
2022-11-10T14:57:20.505Z,28.80
2022-11-10T14:59:49.025Z,31.00
2022-11-10T15:02:19.749Z,29.43
2022-11-10T15:04:51.165Z,30.03
2022-11-10T15:07:20.042Z,28.37
2022-11-10T15:10:07.479Z,28.10
2022-11-10T15:12:41.815Z,28.67
2022-11-10T15:15:19.954Z,29.33
2022-11-10T15:17:50.117Z,28.80
2022-11-10T15:20:32.377Z,29.13
2022-11-10T15:23:01.648Z,29.57
2022-11-10T15:25:36.299Z,29.23
2022-11-10T15:28:15.484Z,28.80
2022-11-10T15:30:51.534Z,28.33
2022-11-10T15:33:25.297Z,28.80
2022-11-10T15:35:53.542Z,29.67
2022-11-10T15:38:27.847Z,30.63
2022-11-10T15:41:10.604Z,29.47
2022-11-10T15:43:39.879Z,32.23
2022-11-10T15:46:17.787Z,32.53
2022-11-10T15:48:48.531Z,34.67
2022-11-10T15:51:25.627Z,32.00
2022-11-10T15:53:55.335Z,33.07
2022-11-10T15:56:25.428Z,34.20
2022-11-10T15:58:59.257Z,35.37
2022-11-10T16:01:29.864Z,36.33
2022-11-10T16:03:57.702Z,42.70
2022-11-10T16:06:25.541Z,40.63
2022-11-10T16:08:53.440Z,36.27
2022-11-10T16:11:23.440Z,35.70
2022-11-10T16:13:52.925Z,37.70
2022-11-10T16:16:23.982Z,36.57
2022-11-10T16:18:52.246Z,35.03
2022-11-10T16:21:21.640Z,35.70
2022-11-10T16:23:49.559Z,35.17
2022-11-10T16:26:19.372Z,38.10
2022-11-10T16:28:47.802Z,36.87
2022-11-10T16:31:16.984Z,45.90
2022-11-10T16:33:47.472Z,39.80
2022-11-10T16:36:23.300Z,45.27
2022-11-10T16:38:51.121Z,40.80
2022-11-10T16:41:18.996Z,36.20
2022-11-10T16:43:46.782Z,36.00
2022-11-10T16:46:19.516Z,35.13
2022-11-10T16:48:49.895Z,34.93
2022-11-10T16:51:18.329Z,36.00
2022-11-10T16:53:46.895Z,41.10
2022-11-10T16:56:16.248Z,35.50
2022-11-10T16:58:44.181Z,34.67
2022-11-10T17:01:18.335Z,33.67
2022-11-10T17:03:50.478Z,33.93
2022-11-10T17:06:20.035Z,34.30
2022-11-10T17:08:48.697Z,34.67
2022-11-10T17:11:16.856Z,35.97
2022-11-10T17:13:45.101Z,33.47
2022-11-10T17:16:22.179Z,34.37
2022-11-10T17:18:52.347Z,33.70
2022-11-10T17:21:21.271Z,34.93
2022-11-10T17:23:49.431Z,38.60
2022-11-10T17:26:19.483Z,41.17
2022-11-10T17:28:47.259Z,41.27
2022-11-10T17:31:15.865Z,56.20
2022-11-10T17:33:43.721Z,79.23
2022-11-10T17:36:18.155Z,67.60
2022-11-10T17:38:46.859Z,51.60
2022-11-10T17:41:17.420Z,71.13
2022-11-10T17:43:47.112Z,66.97
2022-11-10T17:46:16.602Z,55.17
2022-11-10T17:48:45.634Z,52.57
2022-11-10T17:51:19.461Z,59.70
2022-11-10T17:53:47.727Z,54.50
2022-11-10T17:56:15.991Z,55.07
2022-11-10T17:58:43.829Z,54.97
2022-11-10T18:01:17.677Z,54.57
2022-11-10T18:03:46.345Z,55.17
2022-11-10T18:06:16.776Z,72.67
2022-11-10T18:08:45.396Z,57.47
2022-11-10T18:11:15.555Z,55.67
2022-11-10T18:13:44.208Z,55.00
2022-11-10T18:16:13.900Z,58.47
2022-11-10T18:18:42.209Z,58.10
2022-11-10T18:21:11.376Z,56.63
2022-11-10T18:23:40.640Z,58.43
2022-11-10T18:26:11.850Z,57.30
2022-11-10T18:28:42.056Z,55.77
2022-11-10T18:31:11.435Z,57.13
2022-11-10T18:33:39.453Z,55.90
2022-11-10T18:36:09.292Z,59.37
2022-11-10T18:38:37.084Z,56.33
2022-11-10T18:41:21.599Z,56.20
2022-11-10T18:43:49.485Z,55.73
2022-11-10T18:46:17.594Z,53.40
2022-11-10T18:48:46.454Z,49.63
2022-11-10T18:51:14.381Z,48.63
2022-11-10T18:53:42.267Z,46.33
2022-11-10T18:56:11.414Z,49.90
2022-11-10T18:58:39.217Z,50.07
2022-11-10T19:01:08.117Z,50.17
2022-11-10T19:03:37.035Z,50.70
2022-11-10T19:06:06.076Z,61.87
2022-11-10T19:08:33.968Z,59.00
2022-11-10T19:11:01.801Z,58.10
2022-11-10T19:13:31.168Z,56.73
2022-11-10T19:16:00.316Z,57.90
2022-11-10T19:18:30.162Z,60.73
2022-11-10T19:20:57.976Z,66.80
2022-11-10T19:23:26.366Z,61.80
2022-11-10T19:26:01.005Z,85.67
2022-11-10T19:28:30.525Z,68.37
2022-11-10T19:31:01.465Z,71.47
2022-11-10T19:33:30.614Z,68.90
2022-11-10T19:36:04.353Z,66.97
2022-11-10T19:38:32.508Z,87.23
2022-11-10T19:41:03.700Z,108.07
2022-11-10T19:43:32.982Z,110.07
2022-11-10T19:46:04.019Z,94.67
2022-11-10T19:48:32.805Z,60.90
2022-11-10T19:51:01.736Z,57.30
2022-11-10T19:53:30.700Z,72.50
2022-11-10T19:56:03.719Z,68.73
2022-11-10T19:58:33.307Z,72.90
2022-11-10T20:01:02.029Z,75.30
2022-11-10T20:03:30.381Z,65.10
2022-11-10T20:06:00.063Z,63.47
2022-11-10T20:08:28.278Z,63.87
2022-11-10T20:10:59.506Z,73.73
2022-11-10T20:13:27.787Z,76.97
2022-11-10T20:15:57.075Z,80.00
2022-11-10T20:18:25.025Z,82.27
2022-11-10T20:20:52.846Z,86.87
2022-11-10T20:23:20.972Z,83.43
2022-11-10T20:25:49.262Z,84.43
2022-11-10T20:28:17.086Z,82.17
2022-11-10T20:30:45.599Z,80.20
2022-11-10T20:33:14.846Z,88.53
2022-11-10T20:35:43.902Z,98.77
2022-11-10T20:38:12.317Z,89.43
2022-11-10T20:40:44.757Z,82.97
2022-11-10T20:43:14.798Z,90.13
2022-11-10T20:45:42.815Z,81.63
2022-11-10T20:48:10.837Z,88.33
2022-11-10T20:50:41.918Z,86.07
2022-11-10T20:53:09.781Z,86.97
2022-11-10T20:55:53.104Z,87.00
2022-11-10T20:58:21.598Z,86.67
2022-11-10T21:00:49.409Z,90.83
2022-11-10T21:03:17.219Z,106.43
2022-11-10T21:05:46.857Z,115.10
2022-11-10T21:08:15.065Z,101.27
2022-11-10T21:10:42.866Z,93.10
2022-11-10T21:13:10.823Z,103.60
2022-11-10T21:15:40.269Z,99.67
2022-11-10T21:18:08.107Z,92.40
2022-11-10T21:20:36.099Z,82.43
2022-11-10T21:23:05.283Z,96.47
2022-11-10T21:25:33.080Z,100.70
2022-11-10T21:28:02.742Z,90.23
2022-11-10T21:30:30.575Z,89.33
2022-11-10T21:32:58.634Z,83.40
2022-11-10T21:35:26.650Z,81.73
2022-11-10T21:37:54.928Z,82.60
2022-11-10T21:40:25.458Z,82.73
2022-11-10T21:42:55.605Z,87.33
2022-11-10T21:45:23.624Z,86.87
2022-11-10T21:47:51.475Z,81.90
2022-11-10T21:50:19.825Z,84.63
2022-11-10T21:52:47.688Z,82.87
2022-11-10T21:55:15.620Z,94.37
2022-11-10T21:57:44.834Z,101.50
2022-11-10T22:00:14.023Z,99.83
2022-11-10T22:02:42.103Z,103.87
2022-11-10T22:05:10.236Z,99.40
2022-11-10T22:07:39.756Z,95.67
2022-11-10T22:10:26.139Z,94.03
2022-11-10T22:13:12.657Z,95.27
2022-11-10T22:15:59.284Z,96.77
2022-11-10T22:18:40.371Z,81.13
2022-11-10T22:21:09.980Z,76.63
2022-11-10T22:23:54.224Z,78.47
2022-11-10T22:26:22.263Z,78.40
2022-11-10T22:28:51.454Z,74.77
2022-11-10T22:31:19.253Z,74.77
2022-11-10T22:33:47.109Z,77.17
2022-11-10T22:36:17.096Z,75.30
2022-11-10T22:38:44.952Z,75.40
2022-11-10T22:41:32.653Z,83.13
2022-11-10T22:44:05.103Z,88.37
2022-11-10T22:46:34.254Z,95.20
2022-11-10T22:49:02.524Z,96.47
2022-11-10T22:51:31.940Z,94.20
2022-11-10T22:54:00.232Z,83.90
2022-11-10T22:56:28.658Z,86.37
2022-11-10T22:58:59.909Z,69.33
2022-11-10T23:01:29.780Z,77.03
2022-11-10T23:03:59.086Z,76.50
2022-11-10T23:06:27.218Z,76.10
2022-11-10T23:08:55.491Z,81.20
2022-11-10T23:11:24.788Z,73.87
2022-11-10T23:13:52.630Z,69.40
2022-11-10T23:16:22.497Z,67.77
2022-11-10T23:18:52.546Z,65.53
2022-11-10T23:21:22.635Z,66.80
2022-11-10T23:23:51.488Z,63.57
2022-11-10T23:26:21.451Z,60.40
2022-11-10T23:28:49.863Z,60.03
2022-11-10T23:31:19.673Z,62.40
2022-11-10T23:33:49.323Z,58.73
2022-11-10T23:36:19.614Z,58.37
2022-11-10T23:38:48.724Z,66.43
2022-11-10T23:41:18.744Z,61.47
2022-11-10T23:43:46.670Z,78.07
2022-11-10T23:46:14.529Z,82.40
2022-11-10T23:48:47.443Z,78.20
2022-11-10T23:51:16.107Z,58.43
2022-11-10T23:53:45.589Z,50.63
2022-11-10T23:56:14.772Z,83.77
2022-11-10T23:58:42.743Z,97.80
